Time;durP1;ratioP1;P1;durP2;ratioP2;P2;SDS_P1;SDS_P2;PMS_P1;PMS_P2;Temp;Humidity;BMP_temperature;BMP_pressure;BME280_temperature;BME280_humidity;BME280_pressure;Samples;Min_cycle;Max_cycle;Signal;HPM_P1;HPM_P2
2022/01/29 00:02:20;;;;;;;24.27;16.82;;;;;;;0.99;81.41;100094.52;1775428;80;20892;-76
2022/01/29 00:04:47;;;;;;;30.37;19.82;;;;;;;1.00;81.35;100092.36;1780721;80;21121;-74
2022/01/29 00:07:14;;;;;;;30.05;18.82;;;;;;;1.00;81.33;100096.65;1787543;80;20904;-75
2022/01/29 00:09:43;;;;;;;28.38;18.87;;;;;;;1.00;81.30;100094.06;1765157;79;21634;-75
2022/01/29 00:12:10;;;;;;;33.02;21.42;;;;;;;1.00;81.30;100100.10;1793594;80;21563;-75
2022/01/29 00:14:39;;;;;;;26.85;17.98;;;;;;;1.01;81.28;100096.61;1792951;80;20967;-75
2022/01/29 00:17:05;;;;;;;26.80;18.48;;;;;;;1.01;81.18;100088.03;1760438;80;21766;-74
2022/01/29 00:19:33;;;;;;;26.35;18.50;;;;;;;0.99;81.11;100080.77;1776268;79;20883;-75
2022/01/29 00:22:03;;;;;;;31.17;19.48;;;;;;;0.96;81.08;100081.72;1778849;80;20911;-75
2022/01/29 00:24:31;;;;;;;28.70;18.80;;;;;;;0.96;81.06;100086.04;1776432;79;20935;-75
2022/01/29 00:26:57;;;;;;;29.70;19.57;;;;;;;0.94;81.08;100091.23;1773730;79;20907;-72
2022/01/29 00:29:24;;;;;;;31.23;20.25;;;;;;;0.95;81.10;100090.78;1770695;80;21097;-75
2022/01/29 00:31:51;;;;;;;30.20;19.42;;;;;;;0.93;81.07;100083.08;1785727;79;20974;-74
2022/01/29 00:34:18;;;;;;;28.27;19.20;;;;;;;0.91;81.14;100084.02;1769631;80;21065;-75
2022/01/29 00:36:47;;;;;;;31.93;19.98;;;;;;;0.89;81.11;100081.50;1781342;80;21101;-76
2022/01/29 00:39:14;;;;;;;27.58;18.48;;;;;;;0.88;81.18;100083.66;1791616;80;20947;-74
2022/01/29 00:41:41;;;;;;;28.00;19.15;;;;;;;0.86;81.20;100080.28;1792295;80;21520;-74
2022/01/29 00:44:08;;;;;;;26.70;18.55;;;;;;;0.84;81.25;100074.31;1768524;80;21404;-74
2022/01/29 00:46:40;;;;;;;28.60;19.65;;;;;;;0.82;81.29;100083.41;1785665;79;20975;-77
2022/01/29 00:49:04;;;;;;;32.50;19.70;;;;;;;0.81;81.33;100077.83;1776764;80;20867;-74
2022/01/29 00:51:31;;;;;;;31.90;22.20;;;;;;;0.78;81.37;100074.52;1788068;80;21405;-73
2022/01/29 00:53:58;;;;;;;28.67;19.30;;;;;;;0.77;81.46;100071.52;1792088;80;21792;-74
2022/01/29 00:56:24;;;;;;;27.30;19.55;;;;;;;0.78;81.48;100073.22;1760971;80;21143;-73
2022/01/29 00:58:51;;;;;;;29.55;20.45;;;;;;;0.75;81.45;100067.67;1764943;80;21468;-73
2022/01/29 01:01:18;;;;;;;28.42;19.60;;;;;;;0.77;81.52;100076.22;1776161;80;21030;-76
2022/01/29 01:03:45;;;;;;;29.60;19.07;;;;;;;0.76;81.54;100062.93;1771218;80;21041;-75
2022/01/29 01:06:12;;;;;;;26.57;18.87;;;;;;;0.76;81.53;100069.38;1786606;80;21404;-75
2022/01/29 01:08:39;;;;;;;26.12;18.17;;;;;;;0.75;81.54;100066.38;1793328;80;20860;-75
2022/01/29 01:11:06;;;;;;;26.42;17.82;;;;;;;0.73;81.60;100066.03;1778865;80;20903;-73
2022/01/29 01:13:34;;;;;;;30.48;19.23;;;;;;;0.71;81.65;100061.36;1760158;80;20930;-74
2022/01/29 01:16:01;;;;;;;31.33;18.95;;;;;;;0.71;81.74;100067.39;1770577;79;21313;-74
2022/01/29 01:18:27;;;;;;;28.60;19.30;;;;;;;0.71;81.77;100066.09;1773040;80;21086;-74
2022/01/29 01:20:54;;;;;;;29.02;19.00;;;;;;;0.71;81.81;100069.97;1780857;79;20927;-74
2022/01/29 01:23:22;;;;;;;29.07;18.70;;;;;;;0.71;81.78;100057.06;1770572;79;20916;-74
2022/01/29 01:25:48;;;;;;;29.57;19.12;;;;;;;0.71;81.69;100065.23;1789487;80;21081;-73
2022/01/29 01:28:15;;;;;;;28.20;17.57;;;;;;;0.71;81.70;100055.78;1770716;80;21022;-72
2022/01/29 01:30:42;;;;;;;25.55;18.37;;;;;;;0.71;81.64;100058.77;1766430;80;21128;-75
2022/01/29 01:33:10;;;;;;;33.13;19.82;;;;;;;0.70;81.50;100062.26;1770800;79;20970;-74
2022/01/29 01:35:48;;;;;;;27.22;18.75;;;;;;;0.67;81.45;100059.75;1782036;79;20876;-74
2022/01/29 01:40:50;;;;;;;25.00;17.12;;;;;;;0.64;81.35;100046.95;1785945;80;21037;-74
2022/01/29 01:43:13;;;;;;;28.35;19.05;;;;;;;0.62;81.36;100049.56;1764995;80;21094;-75
2022/01/29 01:45:40;;;;;;;26.62;18.52;;;;;;;0.60;81.43;100055.20;1792979;80;20978;-75
2022/01/29 01:48:07;;;;;;;25.82;18.42;;;;;;;0.60;81.47;100048.75;1768542;80;20989;-74
2022/01/29 01:50:35;;;;;;;28.83;19.07;;;;;;;0.61;81.49;100059.49;1766887;80;20982;-76
2022/01/29 01:53:04;;;;;;;25.65;18.57;;;;;;;0.63;81.45;100057.72;1791838;80;20912;-75
2022/01/29 01:55:33;;;;;;;24.57;17.23;;;;;;;0.65;81.41;100069.30;1791633;79;21164;-75
2022/01/29 01:58:00;;;;;;;27.48;19.17;;;;;;;0.67;81.35;100064.91;1775186;80;21046;-75
2022/01/29 02:00:27;;;;;;;29.10;18.62;;;;;;;0.70;81.29;100062.26;1793267;80;21043;-75
2022/01/29 02:02:54;;;;;;;30.10;17.65;;;;;;;0.73;81.23;100063.00;1781863;80;21014;-77
2022/01/29 02:05:21;;;;;;;29.42;19.32;;;;;;;0.76;81.09;100071.96;1765391;80;21432;-74
2022/01/29 02:07:49;;;;;;;28.42;18.82;;;;;;;0.78;81.01;100071.93;1770722;80;21579;-74
2022/01/29 02:10:17;;;;;;;28.00;18.17;;;;;;;0.80;80.92;100065.83;1765605;80;20943;-75
2022/01/29 02:12:49;;;;;;;27.93;19.50;;;;;;;0.81;80.87;100066.22;1789753;80;20892;-74
2022/01/29 02:15:18;;;;;;;25.60;17.87;;;;;;;0.81;80.85;100073.12;1776275;80;20965;-75
2022/01/29 02:17:46;;;;;;;27.22;17.80;;;;;;;0.80;80.80;100070.99;1786336;80;20971;-75
2022/01/29 02:20:15;;;;;;;25.75;18.67;;;;;;;0.81;80.79;100075.70;1769640;79;21060;-76
2022/01/29 02:22:43;;;;;;;26.62;17.67;;;;;;;0.80;80.83;100071.41;1760162;79;20930;-74
2022/01/29 02:25:42;;;;;;;29.10;19.73;;;;;;;0.80;80.87;100077.86;1769674;80;20999;-76
2022/01/29 02:28:16;;;;;;;24.07;17.57;;;;;;;0.80;80.94;100074.86;1785426;79;20943;-75
2022/01/29 02:30:45;;;;;;;23.47;16.75;;;;;;;0.82;80.95;100072.22;1780072;80;20958;-75
2022/01/29 02:33:13;;;;;;;25.88;17.73;;;;;;;0.82;80.98;100074.37;1761702;79;21138;-73
2022/01/29 02:35:43;;;;;;;25.20;15.72;;;;;;;0.85;81.01;100070.02;1783364;80;20848;-75
2022/01/29 02:38:11;;;;;;;24.20;16.93;;;;;;;0.88;81.06;100078.95;1760195;79;21007;-73
2022/01/29 02:40:48;;;;;;;23.62;15.78;;;;;;;0.90;81.14;100077.17;1778989;80;21659;-73
2022/01/29 02:43:18;;;;;;;21.60;15.63;;;;;;;0.92;81.25;100070.23;1780470;80;21748;-73
2022/01/29 02:45:45;;;;;;;26.57;16.77;;;;;;;0.96;81.39;100071.84;1776469;80;21155;-73
2022/01/29 02:48:12;;;;;;;23.80;16.20;;;;;;;0.99;81.44;100080.32;1780887;79;20865;-74
2022/01/29 02:50:39;;;;;;;23.67;16.12;;;;;;;1.01;81.51;100075.13;1790391;80;21764;-76
2022/01/29 02:53:07;;;;;;;23.77;17.60;;;;;;;1.03;81.60;100078.05;1787629;80;20982;-74
2022/01/29 02:55:33;;;;;;;26.55;16.82;;;;;;;1.05;81.62;100080.60;1772240;80;21007;-76
2022/01/29 02:58:01;;;;;;;24.45;17.07;;;;;;;1.05;81.67;100084.47;1764793;80;21593;-75
2022/01/29 03:00:28;;;;;;;24.90;17.75;;;;;;;1.05;81.76;100081.05;1791294;80;21539;-75
2022/01/29 03:02:55;;;;;;;26.10;17.55;;;;;;;1.03;81.85;100079.34;1782053;80;21417;-76
2022/01/29 03:05:21;;;;;;;25.23;17.87;;;;;;;1.02;81.93;100078.09;1786610;80;20947;-75
2022/01/29 03:07:48;;;;;;;28.30;19.23;;;;;;;1.00;82.00;100079.87;1791291;80;20853;-74
2022/01/29 03:10:16;;;;;;;24.70;15.68;;;;;;;0.99;82.15;100082.91;1769389;79;21106;-74
2022/01/29 03:12:43;;;;;;;24.18;16.45;;;;;;;0.99;82.31;100082.06;1769612;80;20990;-74
2022/01/29 03:15:11;;;;;;;26.30;19.25;;;;;;;0.97;82.48;100076.94;1752555;80;20907;-74
2022/01/29 03:17:40;;;;;;;29.82;19.25;;;;;;;0.97;82.61;100082.55;1753831;80;20922;-74
2022/01/29 03:20:08;;;;;;;23.30;16.32;;;;;;;0.99;82.70;100080.77;1757812;80;21722;-73
2022/01/29 03:22:35;;;;;;;23.52;16.45;;;;;;;0.99;82.77;100084.64;1762369;81;21852;-72
2022/01/29 03:25:03;;;;;;;24.67;17.02;;;;;;;0.99;82.83;100082.06;1742164;80;20942;-74
2022/01/29 03:27:30;;;;;;;21.07;14.45;;;;;;;1.00;82.94;100082.45;1755243;80;20967;-74
2022/01/29 03:29:57;;;;;;;21.07;14.95;;;;;;;1.03;82.98;100101.30;1748600;80;21462;-74
2022/01/29 03:32:23;;;;;;;22.13;15.75;;;;;;;1.03;83.10;100084.51;1738300;80;20915;-74
2022/01/29 03:34:50;;;;;;;20.82;15.45;;;;;;;1.07;83.14;100092.16;1747150;80;21720;-73
2022/01/29 03:37:17;;;;;;;20.43;14.93;;;;;;;1.09;83.15;100091.66;1744893;80;21010;-75
2022/01/29 03:39:46;;;;;;;18.60;14.40;;;;;;;1.10;83.18;100089.50;1758364;81;20918;-75
2022/01/29 03:42:15;;;;;;;17.45;13.90;;;;;;;1.10;83.17;100090.79;1762675;81;20917;-74
2022/01/29 03:44:43;;;;;;;18.45;14.10;;;;;;;1.12;83.19;100094.17;1745728;80;20983;-73
2022/01/29 03:47:09;;;;;;;17.87;13.03;;;;;;;1.12;83.16;100090.30;1752358;81;21797;-75
2022/01/29 03:49:36;;;;;;;22.05;14.70;;;;;;;1.13;83.17;100098.44;1739813;80;21527;-74
2022/01/29 03:52:04;;;;;;;18.80;14.43;;;;;;;1.14;83.15;100103.56;1745286;81;20919;-75
2022/01/29 03:54:31;;;;;;;14.60;11.60;;;;;;;1.15;83.14;100100.53;1752573;80;20939;-74
2022/01/29 03:56:58;;;;;;;21.23;14.63;;;;;;;1.17;83.12;100101.33;1748099;80;20946;-74
2022/01/29 03:59:25;;;;;;;15.48;11.78;;;;;;;1.16;83.12;100105.66;1754209;80;21103;-74
2022/01/29 04:01:52;;;;;;;16.55;11.65;;;;;;;1.16;83.22;100101.78;1749954;80;21511;-75
2022/01/29 04:04:19;;;;;;;15.50;11.57;;;;;;;1.16;83.19;100095.78;1750052;80;21484;-73
2022/01/29 04:06:46;;;;;;;16.42;12.55;;;;;;;1.15;83.29;100101.36;1755311;80;20958;-74
2022/01/29 04:09:13;;;;;;;13.13;11.15;;;;;;;1.17;83.31;100105.20;1752791;80;21878;-74
2022/01/29 04:11:42;;;;;;;16.93;12.47;;;;;;;1.19;83.36;100104.72;1750004;80;20965;-75
2022/01/29 04:14:15;;;;;;;12.82;10.78;;;;;;;1.20;83.32;100105.10;1763056;81;20993;-74
2022/01/29 04:16:38;;;;;;;15.65;11.25;;;;;;;1.21;83.33;100113.27;1751486;81;21026;-73
2022/01/29 04:19:05;;;;;;;12.33;10.25;;;;;;;1.21;83.35;100106.81;1759091;80;21010;-73
2022/01/29 04:21:32;;;;;;;16.05;11.70;;;;;;;1.23;83.35;100107.61;1751423;80;20963;-73
2022/01/29 04:24:02;;;;;;;12.37;10.45;;;;;;;1.22;83.31;100099.03;1729291;80;21536;-74
2022/01/29 04:26:33;;;;;;;14.90;11.35;;;;;;;1.22;83.32;100107.20;1733234;80;20999;-74
2022/01/29 04:28:57;;;;;;;12.75;10.15;;;;;;;1.22;83.32;100111.94;1756221;81;21065;-74
2022/01/29 04:31:24;;;;;;;12.33;9.33;;;;;;;1.22;83.36;100111.94;1755758;80;21003;-74
2022/01/29 04:33:51;;;;;;;15.00;10.60;;;;;;;1.27;83.35;100108.34;1739702;80;21651;-75
2022/01/29 04:36:18;;;;;;;13.10;10.85;;;;;;;1.27;83.34;100105.34;1751861;81;21784;-74
2022/01/29 04:38:45;;;;;;;14.18;9.05;;;;;;;1.28;83.31;100110.05;1758916;81;20934;-73
2022/01/29 04:41:12;;;;;;;12.33;10.98;;;;;;;1.28;83.21;100108.31;1765610;80;20906;-74
2022/01/29 04:43:39;;;;;;;10.60;8.73;;;;;;;1.28;83.24;100112.19;1762000;80;20984;-74
2022/01/29 04:46:06;;;;;;;10.32;9.18;;;;;;;1.30;83.21;100109.56;1763879;81;21001;-74
2022/01/29 04:48:33;;;;;;;11.22;9.15;;;;;;;1.31;83.23;100112.53;1761534;81;22167;-74
2022/01/29 04:51:01;;;;;;;10.85;9.20;;;;;;;1.32;83.14;100115.53;1754871;81;20954;-74
2022/01/29 04:53:28;;;;;;;13.38;11.22;;;;;;;1.31;83.14;100109.53;1747931;80;21576;-74
2022/01/29 04:55:55;;;;;;;11.60;9.25;;;;;;;1.33;83.17;100120.63;1757636;81;20883;-73
2022/01/29 04:58:22;;;;;;;11.70;9.20;;;;;;;1.34;83.07;100120.21;1750275;80;21602;-75
2022/01/29 05:00:49;;;;;;;12.98;10.03;;;;;;;1.37;83.03;100123.98;1751409;80;20993;-73
2022/01/29 05:03:16;;;;;;;11.60;9.55;;;;;;;1.35;82.96;100124.02;1761408;81;20954;-75
2022/01/29 05:05:43;;;;;;;11.33;9.05;;;;;;;1.33;82.90;100128.37;1748541;80;20962;-75
2022/01/29 05:08:14;;;;;;;12.93;9.83;;;;;;;1.32;82.83;100129.28;1747203;80;20990;-75
2022/01/29 05:10:40;;;;;;;13.03;9.45;;;;;;;1.31;82.79;100137.94;1760071;81;21491;-75
2022/01/29 05:13:10;;;;;;;13.08;10.28;;;;;;;1.30;82.87;100144.44;1747335;80;21135;-74
2022/01/29 05:15:54;;;;;;;13.18;10.30;;;;;;;1.30;82.95;100140.56;1759038;80;21029;-75
2022/01/29 05:28:54;;;;;;;12.20;10.40;;;;;;;1.40;83.05;100171.25;1737811;80;20908;-73
2022/01/29 05:31:21;;;;;;;13.45;9.45;;;;;;;1.44;83.04;100161.65;1762887;81;21480;-75
2022/01/29 05:33:48;;;;;;;19.17;13.30;;;;;;;1.47;83.00;100165.45;1751482;80;21064;-73
2022/01/29 05:36:15;;;;;;;30.95;16.02;;;;;;;1.48;82.97;100172.75;1751722;80;20998;-76
2022/01/29 05:38:43;;;;;;;24.47;14.38;;;;;;;1.50;82.94;100176.14;1754384;80;21127;-84
2022/01/29 05:41:10;;;;;;;16.85;12.50;;;;;;;1.51;82.81;100178.66;1761719;80;21341;-85
2022/01/29 05:43:37;;;;;;;14.13;11.85;;;;;;;1.52;82.74;100175.20;1746193;80;21073;-77
2022/01/29 05:46:07;;;;;;;15.20;11.12;;;;;;;1.50;82.64;100179.56;1764497;81;20848;-82
2022/01/29 05:48:34;;;;;;;15.10;11.15;;;;;;;1.49;82.68;100186.92;1750469;80;21380;-91
2022/01/29 05:51:01;;;;;;;14.53;11.48;;;;;;;1.48;82.75;100188.25;1751261;80;21121;-87
2022/01/29 05:53:28;;;;;;;14.40;10.70;;;;;;;1.47;82.83;100188.70;1763379;81;20946;-86
2022/01/29 05:55:54;;;;;;;17.17;13.58;;;;;;;1.49;82.87;100189.93;1762819;81;21477;-88
2022/01/29 05:58:21;;;;;;;14.05;11.85;;;;;;;1.51;82.86;100198.48;1751619;80;20888;-83
2022/01/29 06:00:48;;;;;;;12.28;10.90;;;;;;;1.53;82.81;100195.41;1743483;80;21121;-87
2022/01/29 06:03:15;;;;;;;15.93;12.37;;;;;;;1.53;82.81;100194.13;1754495;80;21100;-88
2022/01/29 06:05:42;;;;;;;15.08;11.33;;;;;;;1.55;82.74;100200.93;1753243;80;20922;-88
2022/01/29 06:08:26;;;;;;;11.85;10.05;;;;;;;1.55;82.71;100202.22;1748767;80;20985;-89
2022/01/29 06:11:00;;;;;;;15.83;11.78;;;;;;;1.54;82.66;100206.17;1764187;80;21899;-87
2022/01/29 06:13:27;;;;;;;16.82;12.70;;;;;;;1.54;82.73;100212.63;1743863;81;20907;-80
2022/01/29 06:15:55;;;;;;;22.27;17.40;;;;;;;1.54;82.84;100208.30;1764345;81;21103;-86
2022/01/29 06:18:25;;;;;;;15.00;13.50;;;;;;;1.58;82.92;100215.49;1752007;80;20910;-89
2022/01/29 06:21:03;;;;;;;21.17;17.48;;;;;;;1.61;82.87;100219.30;1756279;80;20839;-86
2022/01/29 06:23:34;;;;;;;17.37;13.72;;;;;;;1.62;82.83;100216.68;1756042;80;20970;-86
2022/01/29 06:26:17;;;;;;;26.80;23.65;;;;;;;1.64;82.80;100217.91;1743863;80;20855;-86
2022/01/29 06:29:05;;;;;;;16.48;14.73;;;;;;;1.62;82.66;100218.39;1755324;80;22866;-88
2022/01/29 06:31:34;;;;;;;20.97;15.55;;;;;;;1.61;82.70;100222.72;1689570;82;21047;-84
2022/01/29 06:34:01;;;;;;;17.82;14.10;;;;;;;1.61;82.75;100224.02;1734800;81;20929;-86
2022/01/29 06:36:30;;;;;;;15.20;12.70;;;;;;;1.64;82.86;100220.03;1715187;81;20982;-85
2022/01/29 06:39:01;;;;;;;15.20;13.60;;;;;;;1.68;82.94;100220.80;1724574;81;20912;-90
2022/01/29 06:41:33;;;;;;;25.27;19.12;;;;;;;1.75;83.01;100215.84;1711376;81;21141;-90
2022/01/29 06:44:00;;;;;;;20.43;14.83;;;;;;;1.83;82.99;100215.62;1719176;81;21030;-90
2022/01/29 06:46:31;;;;;;;16.48;14.68;;;;;;;1.90;82.87;100225.34;1724864;81;21073;-90
2022/01/29 06:49:00;;;;;;;16.20;12.33;;;;;;;1.94;82.74;100220.47;1715539;81;20928;-90
2022/01/29 06:51:30;;;;;;;12.88;11.43;;;;;;;2.00;82.66;100226.30;1726000;81;21422;-87
2022/01/29 06:53:57;;;;;;;12.58;10.48;;;;;;;2.04;82.54;100223.99;1717768;81;21161;-80
2022/01/29 06:56:24;;;;;;;13.45;10.50;;;;;;;2.12;82.48;100229.40;1711677;81;20907;-81
2022/01/29 06:58:51;;;;;;;12.20;9.85;;;;;;;2.18;82.30;100227.89;1725816;81;20925;-79
2022/01/29 07:01:18;;;;;;;12.37;10.82;;;;;;;2.24;82.16;100225.95;1728799;81;21115;-79
2022/01/29 07:03:45;;;;;;;13.70;11.05;;;;;;;2.31;82.01;100233.52;1718645;81;21000;-83
2022/01/29 07:11:07;;;;;;;11.12;8.83;;;;;;;2.45;81.59;100233.48;1789379;80;20904;-80
2022/01/29 07:14:02;;;;;;;8.85;6.80;;;;;;;2.52;81.29;100239.76;1791424;80;21119;-84
2022/01/29 07:16:09;;;;;;;;;;;;;;;2.55;81.13;100240.94;1746623;81;20952;-82
2022/01/29 07:18:40;;;;;;;10.93;7.50;;;;;;;2.60;80.89;100244.21;1790636;79;20111;-84
2022/01/29 07:21:14;;;;;;;13.72;7.95;;;;;;;2.63;80.77;100247.55;1780897;80;20995;-82
2022/01/29 07:23:48;;;;;;;10.45;7.90;;;;;;;2.69;80.61;100245.20;1763803;81;21338;-84
2022/01/29 07:26:17;;;;;;;10.05;8.03;;;;;;;2.71;80.36;100248.58;1761852;81;20868;-80
2022/01/29 07:28:48;;;;;;;10.48;7.97;;;;;;;2.75;80.17;100253.22;1762468;81;20864;-78
2022/01/29 07:31:21;;;;;;;14.80;8.95;;;;;;;2.78;80.03;100255.69;1788752;80;21314;-77
2022/01/29 07:33:51;;;;;;;9.70;8.38;;;;;;;2.85;79.84;100259.34;1787351;80;20924;-84
2022/01/29 07:36:27;;;;;;;9.35;7.10;;;;;;;2.90;79.71;100257.42;1758677;81;21010;-83
2022/01/29 07:38:59;;;;;;;9.50;7.03;;;;;;;2.98;79.44;100258.47;1757372;80;20987;-85
2022/01/29 07:41:29;;;;;;;7.58;6.03;;;;;;;3.03;79.23;100258.31;1757481;81;20857;-84
2022/01/29 07:43:59;;;;;;;10.48;6.90;;;;;;;3.09;78.95;100258.08;1775115;81;20897;-84
2022/01/29 07:46:32;;;;;;;11.88;7.87;;;;;;;3.15;78.67;100266.94;1705698;83;20911;-87
2022/01/29 07:48:59;;;;;;;11.50;7.97;;;;;;;3.22;78.55;100268.86;1703594;83;21020;-88
2022/01/29 07:52:04;;;;;;;;;;;;;;;;;;;;;
2022/01/29 07:54:47;;;;;;;16.48;11.25;;;;;;;3.35;77.97;100264.94;1620377;84;21086;-85
2022/01/29 07:57:27;;;;;;;15.00;10.63;;;;;;;3.39;77.28;100270.86;1706556;84;20907;-87
2022/01/29 07:59:58;;;;;;;13.15;9.98;;;;;;;3.40;76.92;100268.66;1705302;84;21014;-90
2022/01/29 08:02:47;;;;;;;13.68;10.43;;;;;;;3.43;76.81;100276.34;1705963;84;20911;-85
2022/01/29 08:05:12;;;;;;;14.07;9.33;;;;;;;3.50;76.66;100279.09;1705879;84;21450;-81
2022/01/29 08:07:39;;;;;;;12.47;8.70;;;;;;;3.56;76.42;100278.88;1691505;84;21036;-79
2022/01/29 08:10:11;;;;;;;12.55;8.60;;;;;;;3.63;76.23;100279.05;1721187;83;20896;-78
2022/01/29 08:13:04;;;;;;;13.35;9.80;;;;;;;3.70;75.84;100290.03;1721167;83;21522;-78
2022/01/29 08:15:29;;;;;;;14.68;8.50;;;;;;;3.70;75.55;100290.03;1706084;83;20917;-78
2022/01/29 08:18:16;;;;;;;12.05;9.63;;;;;;;3.71;75.34;100300.79;1694202;83;21319;-78
2022/01/29 08:21:00;;;;;;;15.32;8.98;;;;;;;3.72;75.22;100303.33;1719436;83;20944;-79
2022/01/29 08:23:40;;;;;;;13.50;8.78;;;;;;;3.72;75.05;100307.22;1718648;82;20904;-79
2022/01/29 08:26:28;;;;;;;14.05;8.25;;;;;;;3.67;74.78;100307.85;1718797;82;21011;-77
2022/01/29 08:29:02;;;;;;;;;;;;;;;;;;;;;
2022/01/29 08:31:33;;;;;;;10.25;7.78;;;;;;;3.60;74.76;100310.28;1710690;83;21064;-79
2022/01/29 08:34:09;;;;;;;10.25;8.00;;;;;;;3.53;74.71;100312.67;1718692;83;21011;-76
2022/01/29 08:36:43;;;;;;;7.97;5.50;;;;;;;3.46;74.75;100316.39;1717919;82;21541;-75
2022/01/29 08:39:19;;;;;;;8.85;6.53;;;;;;;3.41;74.93;100319.15;1718605;83;22388;-77
2022/01/29 08:41:42;;;;;;;13.45;8.00;;;;;;;3.39;75.15;100317.52;1694571;83;21436;-76
2022/01/29 08:44:11;;;;;;;12.98;6.55;;;;;;;3.39;75.21;100317.52;1778096;80;21553;-78
2022/01/29 08:46:38;;;;;;;9.60;7.37;;;;;;;3.40;75.25;100319.19;1787914;80;20911;-77
2022/01/29 08:49:09;;;;;;;7.10;6.10;;;;;;;3.38;75.20;100322.29;1783263;79;20812;-77
2022/01/29 08:51:38;;;;;;;9.43;6.40;;;;;;;3.34;75.29;100322.03;1788293;79;21006;-78
2022/01/29 08:54:05;;;;;;;8.35;5.85;;;;;;;3.29;75.29;100321.73;1787413;80;20864;-78
2022/01/29 08:56:32;;;;;;;4.20;3.80;;;;;;;3.27;75.48;100330.46;1787551;79;21143;-77
2022/01/29 08:58:59;;;;;;;5.25;4.47;;;;;;;3.22;75.53;100326.70;1787590;79;21445;-78
2022/01/29 09:01:27;;;;;;;6.20;4.35;;;;;;;3.19;75.75;100328.58;1787866;79;20863;-78
2022/01/29 09:03:54;;;;;;;4.87;4.03;;;;;;;3.19;76.02;100336.34;1787480;80;20896;-78
2022/01/29 09:06:21;;;;;;;6.12;4.53;;;;;;;3.20;76.16;100331.13;1787415;79;20970;-77
2022/01/29 09:08:51;;;;;;;7.08;5.33;;;;;;;3.23;76.26;100332.30;1812630;78;21166;-74
2022/01/29 09:11:19;;;;;;;7.40;5.42;;;;;;;3.25;76.21;100332.26;1814032;78;20888;-77
2022/01/29 09:13:46;;;;;;;6.72;4.75;;;;;;;3.28;76.17;100330.39;1813921;79;21099;-77
2022/01/29 09:16:13;;;;;;;8.08;5.45;;;;;;;3.32;76.08;100333.27;1813902;79;20928;-75
2022/01/29 09:18:42;;;;;;;7.42;5.80;;;;;;;3.33;75.95;100330.23;1813839;79;21401;-77
2022/01/29 09:21:08;;;;;;;7.25;5.87;;;;;;;3.34;75.90;100328.50;1813937;79;21116;-75
2022/01/29 09:23:36;;;;;;;7.10;5.08;;;;;;;3.35;75.84;100340.09;1813920;79;21498;-75
2022/01/29 09:26:03;;;;;;;5.78;4.60;;;;;;;3.33;75.75;100338.00;1791334;79;20896;-75
2022/01/29 09:28:30;;;;;;;7.30;5.97;;;;;;;3.32;75.78;100337.62;1812359;79;21068;-78
2022/01/29 09:30:57;;;;;;;6.83;5.00;;;;;;;3.30;75.71;100332.94;1812054;79;20967;-78
2022/01/29 09:33:24;;;;;;;6.15;5.00;;;;;;;3.28;75.71;100339.45;1812421;79;21117;-77
2022/01/29 09:35:53;;;;;;;12.28;6.35;;;;;;;3.26;75.70;100338.66;1813837;78;20869;-76
2022/01/29 09:38:20;;;;;;;8.73;6.30;;;;;;;3.26;75.71;100349.03;1813955;79;20956;-75
2022/01/29 09:40:47;;;;;;;9.75;6.25;;;;;;;3.28;75.65;100347.23;1813760;79;20888;-76
2022/01/29 09:43:14;;;;;;;6.28;5.67;;;;;;;3.29;75.61;100343.76;1813610;79;20865;-78
2022/01/29 09:45:40;;;;;;;6.90;5.62;;;;;;;3.32;75.48;100351.41;1813966;79;21107;-77
2022/01/29 09:48:09;;;;;;;8.48;6.30;;;;;;;3.33;75.32;100356.14;1813829;79;20905;-77
2022/01/29 09:50:37;;;;;;;7.83;5.70;;;;;;;3.32;75.24;100360.48;1814031;79;20896;-76
2022/01/29 09:53:06;;;;;;;9.13;5.55;;;;;;;3.34;75.13;100355.72;1814000;79;20881;-79
2022/01/29 09:55:33;;;;;;;9.23;5.25;;;;;;;3.34;75.15;100362.20;1813810;79;21315;-79
2022/01/29 09:58:00;;;;;;;10.38;6.40;;;;;;;3.37;75.26;100364.22;1813852;79;21428;-79
2022/01/29 10:00:27;;;;;;;10.20;6.53;;;;;;;3.41;75.27;100368.40;1813863;79;20865;-77
2022/01/29 10:03:15;;;;;;;10.48;6.95;;;;;;;3.45;75.01;100365.27;1814030;78;20884;-77
2022/01/29 10:05:48;;;;;;;11.18;7.00;;;;;;;3.45;75.00;100360.91;1814123;79;20872;-78
2022/01/29 10:08:16;;;;;;;8.83;5.85;;;;;;;3.49;74.97;100362.51;1808322;78;20952;-80
2022/01/29 10:11:16;;;;;;;14.38;8.55;;;;;;;3.51;74.79;100366.32;1802586;79;21086;-78
2022/01/29 10:13:49;;;;;;;14.43;6.78;;;;;;;3.48;74.63;100365.98;1757903;79;21109;-78
2022/01/29 10:16:19;;;;;;;11.65;7.72;;;;;;;3.47;74.61;100374.67;1803473;78;20869;-77
2022/01/29 10:19:22;;;;;;;11.83;7.55;;;;;;;3.44;74.45;100375.22;1803681;78;21468;-73
2022/01/29 10:22:01;;;;;;;10.38;6.28;;;;;;;3.40;74.57;100371.03;1733984;80;20968;-75
2022/01/29 10:24:32;;;;;;;10.80;7.10;;;;;;;3.40;74.70;100378.81;1785284;80;21532;-75
2022/01/29 10:27:08;;;;;;;12.98;7.30;;;;;;;3.39;74.41;100379.27;1784221;80;20928;-74
2022/01/29 10:29:50;;;;;;;14.15;8.08;;;;;;;3.35;74.50;100377.67;1764221;80;21457;-72
2022/01/29 10:32:35;;;;;;;11.95;8.38;;;;;;;3.36;74.63;100384.98;1781906;80;21030;-74
2022/01/29 10:35:08;;;;;;;13.95;8.95;;;;;;;3.38;74.38;100385.36;1782921;80;20907;-75
2022/01/29 10:37:39;;;;;;;11.90;8.50;;;;;;;3.36;74.07;100387.16;1779158;80;20833;-77
2022/01/29 10:40:16;;;;;;;14.68;7.58;;;;;;;3.32;73.85;100388.16;1784541;80;20852;-75
2022/01/29 10:42:43;;;;;;;18.32;9.43;;;;;;;3.28;73.81;100392.58;1784471;80;21002;-78
2022/01/29 10:45:10;;;;;;;17.95;10.35;;;;;;;3.25;73.74;100396.58;1784542;80;20952;-78
2022/01/29 10:47:58;;;;;;;20.08;11.63;;;;;;;3.20;73.48;100401.08;1784692;80;20980;-76
2022/01/29 10:50:26;;;;;;;19.23;10.50;;;;;;;3.11;73.48;100403.95;1784728;80;22194;-76
2022/01/29 10:52:56;;;;;;;17.42;9.18;;;;;;;3.06;73.77;100406.69;1784488;80;20888;-76
2022/01/29 10:55:22;;;;;;;12.82;8.48;;;;;;;3.06;73.87;100405.85;1784959;80;20935;-77
2022/01/29 10:57:52;;;;;;;22.48;9.70;;;;;;;3.08;73.97;100406.65;1784561;79;20960;-75
2022/01/29 11:00:31;;;;;;;16.50;10.90;;;;;;;3.12;73.93;100413.43;1802977;78;20924;-75
2022/01/29 11:03:00;;;;;;;14.25;8.53;;;;;;;3.16;73.86;100413.73;1781935;79;21144;-76
2022/01/29 11:05:31;;;;;;;13.40;7.87;;;;;;;3.16;73.62;100411.14;1803842;79;21358;-78
2022/01/29 11:08:01;;;;;;;11.83;7.83;;;;;;;3.15;73.56;100415.91;1807607;78;20884;-80
2022/01/29 11:10:33;;;;;;;11.33;7.75;;;;;;;3.14;73.48;100413.39;1814173;79;20979;-81
2022/01/29 11:13:01;;;;;;;11.78;8.45;;;;;;;3.11;73.31;100406.54;1814298;79;21410;-78
2022/01/29 11:15:29;;;;;;;13.45;8.95;;;;;;;3.06;73.23;100415.76;1813352;79;21749;-80
2022/01/29 11:17:56;;;;;;;13.13;8.73;;;;;;;3.02;73.28;100417.20;1791398;79;21346;-78
2022/01/29 11:20:26;;;;;;;15.05;10.00;;;;;;;2.95;73.38;100423.02;1814986;78;20963;-81
2022/01/29 11:23:09;;;;;;;16.73;10.13;;;;;;;2.95;73.65;100428.20;1814740;79;20860;-80
2022/01/29 11:25:36;;;;;;;18.65;11.10;;;;;;;2.98;73.80;100429.84;1814765;79;20840;-81
2022/01/29 11:28:19;;;;;;;19.30;11.97;;;;;;;2.95;73.65;100429.50;1814310;79;21068;-81
2022/01/29 11:31:08;;;;;;;23.65;13.58;;;;;;;2.94;73.62;100426.98;1791540;79;20876;-83
2022/01/29 11:34:09;;;;;;;21.60;13.55;;;;;;;2.92;73.60;100433.95;1814161;79;20895;-82
2022/01/29 11:36:54;;;;;;;21.82;13.05;;;;;;;2.87;73.54;100428.47;1814193;79;20892;-80
2022/01/29 11:39:34;;;;;;;20.00;12.03;;;;;;;2.81;73.78;100436.41;1814169;79;21493;-81
2022/01/29 11:42:15;;;;;;;24.57;11.35;;;;;;;2.81;73.84;100444.19;1814589;79;21765;-81
2022/01/29 11:44:48;;;;;;;18.95;12.10;;;;;;;2.80;73.79;100441.63;1797083;79;20907;-83
2022/01/29 11:47:30;;;;;;;19.05;12.20;;;;;;;2.74;73.96;100441.84;1813857;79;21326;-81
2022/01/29 11:50:22;;;;;;;26.52;15.28;;;;;;;2.71;74.06;100450.52;1814131;79;21330;-79
2022/01/29 11:53:00;;;;;;;28.35;17.23;;;;;;;2.66;74.26;100452.41;1814498;79;20982;-81
2022/01/29 11:55:41;;;;;;;29.18;16.85;;;;;;;2.63;74.43;100452.06;1813998;79;21879;-82
2022/01/29 11:58:26;;;;;;;35.58;20.57;;;;;;;2.62;74.52;100446.92;1791664;79;20947;-82